Time;durP1;ratioP1;P1;durP2;ratioP2;P2;SDS_P1;SDS_P2;PMS_P1;PMS_P2;Temp;Humidity;BMP_temperature;BMP_pressure;BME280_temperature;BME280_humidity;BME280_pressure;Samples;Min_cycle;Max_cycle;Signal;HPM_P1;HPM_P2
2022/02/14 00:00:59;;;;;;;;;;;3.20;99.90;;;;;;5086403;28;20263;-74
2022/02/14 00:03:41;;;;;;;;;;;3.20;99.90;;;;;;5078700;28;20054;-73
2022/02/14 00:06:09;;;;;;;;;;;3.20;99.90;;;;;;5090245;28;19920;-73
2022/02/14 00:08:35;;;;;;;;;;;3.10;99.90;;;;;;5065530;28;19913;-73
2022/02/14 00:11:03;;;;;;;;;;;3.10;99.90;;;;;;5067397;28;19923;-73
2022/02/14 00:13:30;;;;;;;;;;;3.10;99.90;;;;;;5071891;28;20342;-73
2022/02/14 00:15:58;;;;;;;;;;;3.00;99.90;;;;;;5072052;28;19954;-73
2022/02/14 00:18:41;;;;;;;;;;;3.00;99.90;;;;;;5073828;28;19917;-74
2022/02/14 00:21:09;;;;;;;;;;;3.00;99.90;;;;;;5069784;28;19913;-72
2022/02/14 00:23:34;;;;;;;;;;;3.00;99.90;;;;;;5079131;28;19920;-72
2022/02/14 00:26:01;;;;;;;;;;;3.00;99.90;;;;;;5067919;28;19912;-73
2022/02/14 00:28:27;;;;;;;;;;;3.00;99.90;;;;;;5067607;28;19915;-72
2022/02/14 00:30:52;;;;;;;;;;;2.90;99.90;;;;;;5073883;28;19997;-72
2022/02/14 00:33:21;;;;;;;;;;;2.90;99.90;;;;;;5073797;28;20019;-73
2022/02/14 00:35:52;;;;;;;;;;;2.90;99.90;;;;;;5076683;28;19962;-73
2022/02/14 00:38:26;;;;;;;;;;;2.80;99.90;;;;;;5094944;28;20422;-73
2022/02/14 00:40:52;;;;;;;;;;;2.80;99.90;;;;;;5104151;28;19924;-73
2022/02/14 00:43:24;;;;;;;;;;;2.80;99.90;;;;;;5073754;28;19916;-73
2022/02/14 00:45:50;;;;;;;;;;;2.90;99.90;;;;;;5071974;28;19953;-72
2022/02/14 00:48:17;;;;;;;;;;;2.90;99.90;;;;;;5082399;28;19913;-73
2022/02/14 00:50:44;;;;;;;;;;;2.90;99.90;;;;;;5087298;28;19916;-73
2022/02/14 00:53:12;;;;;;;;;;;3.00;99.90;;;;;;5074628;28;19913;-73
2022/02/14 00:55:38;;;;;;;;;;;3.10;99.90;;;;;;5066124;28;19912;-72
2022/02/14 00:58:04;;;;;;;;;;;3.10;99.90;;;;;;5074315;28;19920;-72
2022/02/14 01:00:29;;;;;;;;;;;3.10;99.90;;;;;;5078544;28;19920;-74
2022/02/14 01:02:55;;;;;;;;;;;3.00;99.90;;;;;;5080166;28;19912;-72
2022/02/14 01:05:21;;;;;;;;;;;3.00;99.90;;;;;;5083564;28;20298;-73
2022/02/14 01:07:46;;;;;;;;;;;3.00;99.90;;;;;;5067874;28;19935;-72
2022/02/14 01:10:13;;;;;;;;;;;3.10;99.90;;;;;;5066512;28;19923;-73
2022/02/14 01:12:39;;;;;;;;;;;3.00;99.90;;;;;;5065640;28;20283;-73
2022/02/14 01:15:06;;;;;;;;;;;2.90;99.90;;;;;;5080885;28;19913;-73
2022/02/14 01:17:33;;;;;;;;;;;2.90;99.90;;;;;;5079067;28;20053;-73
2022/02/14 01:20:10;;;;;;;;;;;2.90;99.90;;;;;;5065291;28;20007;-73
2022/02/14 01:22:35;;;;;;;;;;;3.00;99.90;;;;;;5084184;28;19948;-72
2022/02/14 01:25:02;;;;;;;;;;;3.00;99.90;;;;;;5076442;28;19968;-73
2022/02/14 01:27:28;;;;;;;;;;;2.90;99.90;;;;;;5087650;28;19920;-73
2022/02/14 01:29:53;;;;;;;;;;;2.90;99.90;;;;;;5079760;28;19920;-73
2022/02/14 01:32:22;;;;;;;;;;;2.90;99.90;;;;;;5073919;28;19919;-72
2022/02/14 01:34:51;;;;;;;;;;;2.90;99.90;;;;;;5076344;28;19913;-72
2022/02/14 01:37:17;;;;;;;;;;;3.00;99.90;;;;;;5063643;28;20424;-71
2022/02/14 01:39:43;;;;;;;;;;;3.00;99.90;;;;;;5072338;28;19920;-72
2022/02/14 01:42:09;;;;;;;;;;;3.00;99.90;;;;;;5073433;28;20366;-72
2022/02/14 01:44:34;;;;;;;;;;;3.00;99.90;;;;;;5069866;28;19912;-72
2022/02/14 01:47:00;;;;;;;;;;;3.00;99.90;;;;;;5057425;28;19912;-73
2022/02/14 01:49:26;;;;;;;;;;;3.10;99.90;;;;;;5063794;28;20319;-72
2022/02/14 01:51:51;;;;;;;;;;;3.10;99.90;;;;;;5074608;28;19960;-72
2022/02/14 01:54:17;;;;;;;;;;;3.10;99.90;;;;;;5074251;28;20266;-72
2022/02/14 01:56:42;;;;;;;;;;;3.00;99.90;;;;;;5069375;28;20452;-71
2022/02/14 01:59:08;;;;;;;;;;;3.10;99.90;;;;;;5070990;28;19917;-72
2022/02/14 02:01:34;;;;;;;;;;;3.30;99.90;;;;;;5077414;28;19913;-74
2022/02/14 02:04:00;;;;;;;;;;;3.40;99.90;;;;;;5073803;28;19912;-74
2022/02/14 02:06:26;;;;;;;;;;;3.40;99.90;;;;;;5068089;28;20391;-72
2022/02/14 02:08:52;;;;;;;;;;;3.40;99.90;;;;;;5055381;28;19924;-72
2022/02/14 02:14:02;;;;;;;;;;;3.60;99.90;;;;;;5067562;28;20326;-73
2022/02/14 02:16:28;;;;;;;;;;;3.60;99.90;;;;;;5073037;28;19913;-75
2022/02/14 02:18:53;;;;;;;;;;;3.60;99.90;;;;;;5049880;28;19954;-72
2022/02/14 02:21:19;;;;;;;;;;;3.70;99.90;;;;;;5061646;28;20326;-73
2022/02/14 02:23:47;;;;;;;;;;;3.70;99.90;;;;;;5076161;28;19974;-72
2022/02/14 02:26:12;;;;;;;;;;;3.70;99.90;;;;;;5051425;28;20279;-74
2022/02/14 02:28:38;;;;;;;;;;;3.70;99.90;;;;;;5063653;28;19916;-73
2022/02/14 02:31:05;;;;;;;;;;;3.70;99.90;;;;;;5081367;28;19913;-73
2022/02/14 02:33:31;;;;;;;;;;;3.80;99.90;;;;;;5056616;28;20333;-74
2022/02/14 02:35:58;;;;;;;;;;;3.80;99.90;;;;;;5073965;28;19997;-74
2022/02/14 02:38:24;;;;;;;;;;;3.80;99.90;;;;;;5062202;28;19967;-73
2022/02/14 02:40:50;;;;;;;;;;;3.80;99.90;;;;;;5071534;28;19912;-74
2022/02/14 02:43:17;;;;;;;;;;;3.90;99.90;;;;;;5072681;28;20509;-73
2022/02/14 02:45:43;;;;;;;;;;;3.90;99.90;;;;;;5061070;28;19919;-74
2022/02/14 02:48:08;;;;;;;;;;;3.90;99.90;;;;;;5055882;28;19946;-72
2022/02/14 02:50:34;;;;;;;;;;;4.00;99.90;;;;;;5068262;28;20513;-73
2022/02/14 02:53:00;;;;;;;;;;;4.00;99.90;;;;;;5067512;28;19944;-73
2022/02/14 02:55:26;;;;;;;;;;;4.00;99.90;;;;;;5076409;28;19912;-73
2022/02/14 02:57:57;;;;;;;;;;;4.00;99.90;;;;;;5073725;28;19913;-73
2022/02/14 03:00:23;;;;;;;;;;;4.00;99.90;;;;;;5063485;28;20271;-72
2022/02/14 03:02:49;;;;;;;;;;;4.00;99.90;;;;;;5059084;28;19913;-72
2022/02/14 03:05:14;;;;;;;;;;;4.10;99.90;;;;;;5071034;28;19913;-71
2022/02/14 03:07:40;;;;;;;;;;;4.10;99.90;;;;;;5093771;28;19908;-73
2022/02/14 03:10:06;;;;;;;;;;;4.10;99.90;;;;;;5070363;28;19986;-73
2022/02/14 03:12:32;;;;;;;;;;;4.20;99.90;;;;;;5062498;28;19995;-73
2022/02/14 03:14:57;;;;;;;;;;;4.10;99.90;;;;;;5072876;28;20036;-71
2022/02/14 03:17:23;;;;;;;;;;;4.20;99.90;;;;;;5070345;28;20015;-73
2022/02/14 03:19:48;;;;;;;;;;;4.20;99.90;;;;;;5075270;28;20334;-73
2022/02/14 03:22:14;;;;;;;;;;;4.20;99.90;;;;;;5059599;28;19919;-72
2022/02/14 03:24:40;;;;;;;;;;;4.20;99.90;;;;;;5056664;28;19932;-74
2022/02/14 03:27:05;;;;;;;;;;;4.20;99.90;;;;;;5071447;28;19935;-74
2022/02/14 03:29:31;;;;;;;;;;;4.10;99.90;;;;;;5085304;28;19913;-73
2022/02/14 03:31:56;;;;;;;;;;;4.20;99.90;;;;;;5081867;28;19962;-72
2022/02/14 03:34:22;;;;;;;;;;;4.20;99.90;;;;;;5067587;28;19916;-73
2022/02/14 03:36:48;;;;;;;;;;;4.20;99.90;;;;;;5071666;28;20286;-73
2022/02/14 03:39:14;;;;;;;;;;;4.30;99.90;;;;;;5066627;28;19924;-73
2022/02/14 03:41:39;;;;;;;;;;;4.40;99.90;;;;;;5069240;28;19944;-70
2022/02/14 03:44:05;;;;;;;;;;;4.40;99.90;;;;;;5071314;28;19924;-71
2022/02/14 03:46:30;;;;;;;;;;;4.50;99.90;;;;;;5076331;28;19922;-72
2022/02/14 03:48:57;;;;;;;;;;;4.50;99.90;;;;;;5073661;28;20102;-73
2022/02/14 03:51:22;;;;;;;;;;;4.50;99.90;;;;;;5070988;28;20035;-72
2022/02/14 03:53:48;;;;;;;;;;;4.50;99.90;;;;;;5062574;28;20010;-74
2022/02/14 03:56:14;;;;;;;;;;;4.50;99.90;;;;;;5075678;28;19947;-72
2022/02/14 03:58:40;;;;;;;;;;;4.50;99.90;;;;;;5067844;28;19931;-72
2022/02/14 04:01:05;;;;;;;;;;;4.50;99.90;;;;;;5071999;28;19956;-73
2022/02/14 04:03:31;;;;;;;;;;;4.50;99.90;;;;;;5075444;28;20519;-73
2022/02/14 04:05:56;;;;;;;;;;;4.50;99.90;;;;;;5067248;28;19919;-71
2022/02/14 04:08:22;;;;;;;;;;;4.50;99.90;;;;;;5064786;28;19916;-72
2022/02/14 04:10:48;;;;;;;;;;;4.50;99.90;;;;;;5082386;28;19955;-72
2022/02/14 04:13:13;;;;;;;;;;;4.60;99.90;;;;;;5069838;28;20274;-72
2022/02/14 04:15:39;;;;;;;;;;;4.60;99.90;;;;;;5082931;28;19990;-71
2022/02/14 04:18:06;;;;;;;;;;;4.60;99.90;;;;;;5078310;28;19974;-71
2022/02/14 04:20:32;;;;;;;;;;;4.70;99.90;;;;;;5064663;28;20239;-72
2022/02/14 04:22:58;;;;;;;;;;;4.80;99.90;;;;;;5071274;28;19936;-73
2022/02/14 04:25:24;;;;;;;;;;;4.90;99.90;;;;;;5054394;28;20289;-73
2022/02/14 04:27:49;;;;;;;;;;;5.00;99.90;;;;;;5089217;28;19912;-74
2022/02/14 04:30:15;;;;;;;;;;;5.00;99.90;;;;;;5088961;28;19916;-72
2022/02/14 04:32:42;;;;;;;;;;;5.00;99.90;;;;;;5071981;28;19913;-72
2022/02/14 04:35:09;;;;;;;;;;;5.10;99.90;;;;;;5073556;28;19912;-72
2022/02/14 04:37:34;;;;;;;;;;;5.20;99.90;;;;;;5086038;28;19977;-73
2022/02/14 04:40:00;;;;;;;;;;;5.30;99.90;;;;;;5071251;28;20399;-71
2022/02/14 04:42:27;;;;;;;;;;;5.30;99.90;;;;;;5077536;28;19913;-73
2022/02/14 04:44:52;;;;;;;;;;;5.30;99.90;;;;;;5076433;28;19999;-72
2022/02/14 04:47:18;;;;;;;;;;;5.40;99.90;;;;;;5073832;28;20158;-72
2022/02/14 04:49:44;;;;;;;;;;;5.50;99.90;;;;;;5071994;28;19999;-75
2022/02/14 04:52:10;;;;;;;;;;;5.60;99.90;;;;;;5072569;28;19943;-72
2022/02/14 04:54:35;;;;;;;;;;;5.60;99.90;;;;;;5059239;28;19913;-73
2022/02/14 04:57:01;;;;;;;;;;;5.90;99.90;;;;;;5070483;28;20043;-73
2022/02/14 04:59:27;;;;;;;;;;;5.90;99.90;;;;;;5073727;28;20057;-72
2022/02/14 05:01:52;;;;;;;;;;;6.00;99.90;;;;;;5064167;28;19928;-72
2022/02/14 05:04:18;;;;;;;;;;;5.90;99.90;;;;;;5073645;28;20614;-73
2022/02/14 05:06:43;;;;;;;;;;;5.80;99.90;;;;;;5076362;28;19912;-72
2022/02/14 05:09:09;;;;;;;;;;;5.90;99.90;;;;;;5061541;28;19986;-71
2022/02/14 05:11:35;;;;;;;;;;;5.80;99.90;;;;;;5073581;28;19958;-73
2022/02/14 05:14:01;;;;;;;;;;;5.80;99.90;;;;;;5055746;28;19913;-73
2022/02/14 05:16:26;;;;;;;;;;;5.90;99.90;;;;;;5069750;28;19939;-71
2022/02/14 05:18:52;;;;;;;;;;;5.90;99.90;;;;;;5066564;28;19916;-72
2022/02/14 05:21:18;;;;;;;;;;;5.80;99.90;;;;;;5074847;28;19916;-71
2022/02/14 05:23:44;;;;;;;;;;;5.70;99.90;;;;;;5061939;28;20392;-72
2022/02/14 05:26:10;;;;;;;;;;;5.60;99.90;;;;;;5061502;28;19912;-72
2022/02/14 05:28:36;;;;;;;;;;;5.50;99.90;;;;;;5080724;28;20305;-75
2022/02/14 05:31:01;;;;;;;;;;;5.40;99.90;;;;;;5069378;28;20329;-74
2022/02/14 05:33:27;;;;;;;;;;;5.40;99.90;;;;;;5078167;28;20008;-72
2022/02/14 05:35:52;;;;;;;;;;;5.30;99.90;;;;;;5062817;28;20343;-71
2022/02/14 05:38:18;;;;;;;;;;;5.30;99.90;;;;;;5071053;28;19912;-74
2022/02/14 05:40:44;;;;;;;;;;;5.20;99.90;;;;;;5067204;28;19998;-72
2022/02/14 05:43:10;;;;;;;;;;;5.30;99.90;;;;;;5072349;28;19909;-73
2022/02/14 05:45:36;;;;;;;;;;;5.30;99.90;;;;;;5080044;28;20008;-71
2022/02/14 05:48:01;;;;;;;;;;;5.30;99.90;;;;;;5060912;28;19908;-73
2022/02/14 05:50:27;;;;;;;;;;;5.40;99.90;;;;;;5075369;28;19968;-72
2022/02/14 05:52:53;;;;;;;;;;;5.40;99.90;;;;;;5068433;28;19935;-72
2022/02/14 05:55:18;;;;;;;;;;;5.40;99.90;;;;;;5061347;28;20322;-73
2022/02/14 05:57:44;;;;;;;;;;;5.60;99.90;;;;;;5064950;28;19913;-72
2022/02/14 06:00:10;;;;;;;;;;;5.70;99.90;;;;;;5062848;28;19912;-72
2022/02/14 06:02:36;;;;;;;;;;;5.60;99.90;;;;;;5074176;28;19913;-73
2022/02/14 06:05:02;;;;;;;;;;;5.40;99.90;;;;;;5073695;28;19909;-72
2022/02/14 06:07:27;;;;;;;;;;;5.30;99.90;;;;;;5070314;28;19913;-73
2022/02/14 06:09:54;;;;;;;;;;;5.20;99.90;;;;;;5065276;28;21442;-72
2022/02/14 06:12:20;;;;;;;;;;;5.20;99.90;;;;;;5064760;28;19924;-74
2022/02/14 06:14:45;;;;;;;;;;;5.20;99.90;;;;;;5068247;28;19923;-74
2022/02/14 06:17:11;;;;;;;;;;;5.20;99.90;;;;;;5076725;28;20028;-72
2022/02/14 06:19:37;;;;;;;;;;;5.20;99.90;;;;;;5084239;28;20294;-73
2022/02/14 06:22:03;;;;;;;;;;;5.20;99.90;;;;;;5066304;28;19927;-70
2022/02/14 06:24:28;;;;;;;;;;;5.20;99.90;;;;;;5092352;28;19913;-72
2022/02/14 06:26:54;;;;;;;;;;;5.20;99.90;;;;;;5072651;28;20003;-73
2022/02/14 06:29:20;;;;;;;;;;;5.20;99.90;;;;;;5066402;28;19908;-72
2022/02/14 06:31:45;;;;;;;;;;;5.10;99.90;;;;;;5060589;28;19913;-72
2022/02/14 06:34:11;;;;;;;;;;;5.10;99.90;;;;;;5068451;28;19913;-73
2022/02/14 06:36:37;;;;;;;;;;;5.20;99.90;;;;;;5062563;28;19913;-73
2022/02/14 06:39:03;;;;;;;;;;;5.30;99.90;;;;;;5057868;28;19917;-73
2022/02/14 06:41:29;;;;;;;;;;;5.20;99.90;;;;;;5069733;28;19912;-73
2022/02/14 06:43:56;;;;;;;;;;;5.40;99.90;;;;;;5071063;28;20342;-75
2022/02/14 06:46:22;;;;;;;;;;;5.50;99.90;;;;;;5063763;28;19917;-73
2022/02/14 06:48:48;;;;;;;;;;;5.50;99.90;;;;;;5062417;28;20318;-72
2022/02/14 06:51:14;;;;;;;;;;;5.50;99.90;;;;;;5066952;28;19912;-72
2022/02/14 06:53:40;;;;;;;;;;;5.40;99.90;;;;;;5080674;28;19916;-73
2022/02/14 06:56:06;;;;;;;;;;;5.40;99.90;;;;;;5069985;28;19967;-75
2022/02/14 06:58:41;;;;;;;;;;;5.50;99.90;;;;;;5058781;28;19924;-74
2022/02/14 07:01:07;;;;;;;;;;;5.60;99.90;;;;;;5062660;28;20405;-72
2022/02/14 07:03:37;;;;;;;;;;;5.80;99.90;;;;;;5073660;28;20015;-72
2022/02/14 07:06:06;;;;;;;;;;;5.70;99.90;;;;;;5062249;28;19938;-73
2022/02/14 07:08:32;;;;;;;;;;;5.70;99.90;;;;;;5071767;28;19921;-75
2022/02/14 07:10:58;;;;;;;;;;;5.70;99.90;;;;;;5060794;28;20324;-73
2022/02/14 07:13:23;;;;;;;;;;;5.70;99.90;;;;;;5063023;28;19947;-71
2022/02/14 07:15:49;;;;;;;;;;;5.60;99.90;;;;;;5066352;28;19917;-73
2022/02/14 07:18:15;;;;;;;;;;;5.50;99.90;;;;;;5074233;28;20389;-74
2022/02/14 07:20:40;;;;;;;;;;;5.50;99.90;;;;;;5076757;28;19913;-73
2022/02/14 07:23:06;;;;;;;;;;;5.50;99.90;;;;;;5064357;28;20024;-72
2022/02/14 07:25:32;;;;;;;;;;;5.40;99.90;;;;;;5071083;28;19957;-74
2022/02/14 07:27:58;;;;;;;;;;;5.50;99.90;;;;;;5057758;28;19915;-72
2022/02/14 07:30:24;;;;;;;;;;;5.60;99.90;;;;;;5060951;28;19966;-72
2022/02/14 07:32:50;;;;;;;;;;;5.80;99.90;;;;;;5060740;28;19935;-74
2022/02/14 07:35:15;;;;;;;;;;;5.90;99.90;;;;;;5073294;28;19913;-74
2022/02/14 07:37:42;;;;;;;;;;;6.10;99.90;;;;;;5082662;28;20326;-72
2022/02/14 07:40:08;;;;;;;;;;;6.20;99.90;;;;;;5068215;28;19928;-72
2022/02/14 07:42:34;;;;;;;;;;;6.20;99.90;;;;;;5083701;28;19912;-74
2022/02/14 07:45:00;;;;;;;;;;;6.30;99.90;;;;;;5064874;28;19932;-73
2022/02/14 07:47:25;;;;;;;;;;;6.40;99.90;;;;;;5058351;28;20358;-72
2022/02/14 07:49:51;;;;;;;;;;;6.50;99.90;;;;;;5059908;28;19917;-72
2022/02/14 07:52:17;;;;;;;;;;;6.60;99.90;;;;;;5064616;28;19924;-74
2022/02/14 07:54:43;;;;;;;;;;;6.70;99.90;;;;;;5069836;28;19927;-73
2022/02/14 07:57:09;;;;;;;;;;;6.80;99.90;;;;;;5077514;28;19956;-73
2022/02/14 07:59:34;;;;;;;;;;;6.80;99.90;;;;;;5068554;28;19937;-73
2022/02/14 08:02:00;;;;;;;;;;;6.70;99.90;;;;;;5063827;28;19912;-74
2022/02/14 08:04:26;;;;;;;;;;;6.70;99.90;;;;;;5073131;28;20047;-73
2022/02/14 08:06:51;;;;;;;;;;;6.60;99.90;;;;;;5076934;28;19966;-73
2022/02/14 08:09:17;;;;;;;;;;;6.60;99.90;;;;;;5075550;28;19952;-72
2022/02/14 08:11:43;;;;;;;;;;;6.60;99.90;;;;;;5065531;28;19916;-72
2022/02/14 08:14:09;;;;;;;;;;;6.60;99.90;;;;;;5056969;28;20325;-73
2022/02/14 08:16:35;;;;;;;;;;;6.50;99.90;;;;;;5068451;28;19913;-72
2022/02/14 08:19:01;;;;;;;;;;;6.50;99.90;;;;;;5077049;28;20298;-73
2022/02/14 08:21:27;;;;;;;;;;;6.40;99.90;;;;;;5082932;28;20008;-74
2022/02/14 08:23:53;;;;;;;;;;;6.50;99.90;;;;;;5075883;28;20435;-71
2022/02/14 08:26:19;;;;;;;;;;;6.60;99.90;;;;;;5084473;28;19917;-73
2022/02/14 08:28:45;;;;;;;;;;;6.60;99.90;;;;;;5078115;28;19913;-73
2022/02/14 08:31:11;;;;;;;;;;;6.70;99.90;;;;;;5087776;28;19920;-73
2022/02/14 08:33:37;;;;;;;;;;;6.70;99.90;;;;;;5088384;28;19947;-73
2022/02/14 08:36:03;;;;;;;;;;;6.80;99.90;;;;;;5085299;28;19960;-74
2022/02/14 08:38:28;;;;;;;;;;;6.90;99.90;;;;;;5101370;28;19912;-71
2022/02/14 08:40:54;;;;;;;;;;;7.00;99.90;;;;;;5081652;28;20286;-73
2022/02/14 08:43:20;;;;;;;;;;;7.00;99.90;;;;;;5069432;28;19920;-73
2022/02/14 08:45:49;;;;;;;;;;;7.00;99.90;;;;;;5071029;28;19916;-74
2022/02/14 08:48:18;;;;;;;;;;;7.10;99.90;;;;;;5065897;28;19913;-72
2022/02/14 08:51:04;;;;;;;;;;;;;;;;;;;;;
2022/02/14 08:53:37;;;;;;;;;;;7.10;99.90;;;;;;5065777;28;20293;-73
2022/02/14 08:56:10;;;;;;;;;;;7.10;99.90;;;;;;5072834;28;19928;-74
2022/02/14 08:58:37;;;;;;;;;;;7.10;99.90;;;;;;5075508;28;20370;-74
2022/02/14 09:01:15;;;;;;;;;;;7.10;99.90;;;;;;5080485;28;19928;-72
2022/02/14 09:03:41;;;;;;;;;;;7.20;99.90;;;;;;5083441;28;20347;-69
2022/02/14 09:06:08;;;;;;;;;;;7.30;99.90;;;;;;5068936;28;19959;-70
2022/02/14 09:08:33;;;;;;;;;;;7.30;99.90;;;;;;5086011;28;19913;-69
2022/02/14 09:10:59;;;;;;;;;;;7.40;99.90;;;;;;5085960;28;19909;-70
2022/02/14 09:13:25;;;;;;;;;;;7.50;99.90;;;;;;5090780;28;20006;-68
2022/02/14 09:15:51;;;;;;;;;;;7.50;99.90;;;;;;5070552;28;19912;-66
2022/02/14 09:18:16;;;;;;;;;;;7.60;99.90;;;;;;5060595;28;19917;-67
2022/02/14 09:20:42;;;;;;;;;;;7.50;99.90;;;;;;5058443;28;19920;-70
2022/02/14 09:23:08;;;;;;;;;;;7.40;99.90;;;;;;5065069;28;19917;-69
2022/02/14 09:25:34;;;;;;;;;;;7.30;99.90;;;;;;5065899;28;19913;-70
2022/02/14 09:28:01;;;;;;;;;;;7.30;99.90;;;;;;5056291;28;20273;-70
2022/02/14 09:30:27;;;;;;;;;;;7.30;99.90;;;;;;5073585;28;19920;-70
2022/02/14 09:32:53;;;;;;;;;;;7.30;99.90;;;;;;5057134;28;19924;-70
2022/02/14 09:35:26;;;;;;;;;;;7.30;99.90;;;;;;5058990;28;19919;-70
2022/02/14 09:37:55;;;;;;;;;;;7.50;99.90;;;;;;5074111;28;19999;-70
2022/02/14 09:40:22;;;;;;;;;;;7.50;99.90;;;;;;5072529;28;20375;-69
2022/02/14 09:42:49;;;;;;;;;;;7.50;99.90;;;;;;5061913;28;20011;-72
2022/02/14 09:45:15;;;;;;;;;;;7.70;99.90;;;;;;5074732;28;19959;-70
2022/02/14 09:47:42;;;;;;;;;;;7.70;99.90;;;;;;5074164;28;19954;-70
2022/02/14 09:50:09;;;;;;;;;;;7.80;99.90;;;;;;5065008;28;19992;-70
2022/02/14 09:52:35;;;;;;;;;;;7.90;99.90;;;;;;5061593;28;19935;-70
2022/02/14 09:55:00;;;;;;;;;;;8.00;99.90;;;;;;5060234;28;19913;-69
2022/02/14 09:57:26;;;;;;;;;;;8.00;99.90;;;;;;5065235;28;20282;-69
2022/02/14 09:59:52;;;;;;;;;;;8.00;99.90;;;;;;5066713;28;20286;-70
2022/02/14 10:02:18;;;;;;;;;;;8.10;99.90;;;;;;5053779;28;20468;-70
2022/02/14 10:05:03;;;;;;;;;;;8.10;99.90;;;;;;5076248;28;20577;-69
2022/02/14 10:07:48;;;;;;;;;;;8.00;99.90;;;;;;5074676;28;19974;-69
2022/02/14 10:10:16;;;;;;;;;;;8.00;99.90;;;;;;5065079;28;19921;-69
2022/02/14 10:12:43;;;;;;;;;;;7.90;99.90;;;;;;5064599;28;19908;-69
2022/02/14 10:15:09;;;;;;;;;;;7.90;99.90;;;;;;5074639;28;19963;-69
2022/02/14 10:17:38;;;;;;;;;;;7.90;99.90;;;;;;5056382;28;20325;-69
2022/02/14 10:20:04;;;;;;;;;;;7.90;99.90;;;;;;5080153;28;19916;-68
2022/02/14 10:22:30;;;;;;;;;;;8.00;99.90;;;;;;5087293;28;19966;-69
2022/02/14 10:24:55;;;;;;;;;;;8.00;99.90;;;;;;5067093;28;19970;-71
2022/02/14 10:27:31;;;;;;;;;;;8.00;99.90;;;;;;5066603;28;20260;-70
2022/02/14 10:30:07;;;;;;;;;;;8.00;99.90;;;;;;5067850;28;19908;-69
2022/02/14 10:32:34;;;;;;;;;;;8.00;99.90;;;;;;5064219;28;20359;-69
2022/02/14 10:35:00;;;;;;;;;;;8.10;99.90;;;;;;5063366;28;19917;-69
2022/02/14 10:37:43;;;;;;;;;;;8.00;99.90;;;;;;5073352;28;19913;-71
2022/02/14 10:40:09;;;;;;;;;;;8.00;99.90;;;;;;5082824;28;19912;-66
2022/02/14 10:42:36;;;;;;;;;;;7.90;99.90;;;;;;5070764;28;19966;-70
2022/02/14 10:45:08;;;;;;;;;;;7.90;99.90;;;;;;5080602;28;19915;-71
2022/02/14 10:47:35;;;;;;;;;;;7.90;99.90;;;;;;5055539;28;19913;-70
2022/02/14 10:50:01;;;;;;;;;;;7.90;99.90;;;;;;5076665;28;19916;-71
2022/02/14 10:52:38;;;;;;;;;;;8.00;99.90;;;;;;5070855;28;19912;-69
2022/02/14 10:55:05;;;;;;;;;;;8.10;99.90;;;;;;5067033;28;19999;-70
2022/02/14 10:57:31;;;;;;;;;;;8.10;99.90;;;;;;5066588;28;19912;-70
2022/02/14 10:59:57;;;;;;;;;;;8.20;99.90;;;;;;5071636;28;19913;-70
2022/02/14 11:02:23;;;;;;;;;;;8.10;99.90;;;;;;5054410;28;20065;-70
2022/02/14 11:04:50;;;;;;;;;;;8.10;99.90;;;;;;5060472;28;19913;-70
2022/02/14 11:07:16;;;;;;;;;;;8.10;99.90;;;;;;5078564;28;19919;-70
2022/02/14 11:09:43;;;;;;;;;;;8.00;99.90;;;;;;5070317;28;20396;-71
2022/02/14 11:12:09;;;;;;;;;;;7.90;99.90;;;;;;5066275;28;19935;-70
2022/02/14 11:14:35;;;;;;;;;;;7.90;99.90;;;;;;5065777;28;20370;-70
2022/02/14 11:17:01;;;;;;;;;;;7.90;99.90;;;;;;5073884;28;19919;-69
2022/02/14 11:19:28;;;;;;;;;;;7.80;99.90;;;;;;5073242;28;19916;-70
2022/02/14 11:21:53;;;;;;;;;;;7.80;99.90;;;;;;5072655;28;20007;-71
2022/02/14 11:24:24;;;;;;;;;;;7.90;99.90;;;;;;5073812;28;20094;-70
2022/02/14 11:26:57;;;;;;;;;;;7.80;99.90;;;;;;5053577;28;19913;-70
2022/02/14 11:29:32;;;;;;;;;;;7.80;99.90;;;;;;5076829;28;20414;-72
2022/02/14 11:32:38;;;;;;;;;;;7.80;99.90;;;;;;5074241;28;19924;-70
2022/02/14 11:35:17;;;;;;;;;;;7.70;99.90;;;;;;5036107;28;19913;-69
2022/02/14 11:37:45;;;;;;;;;;;7.80;99.90;;;;;;5066579;28;19912;-71
2022/02/14 11:40:30;;;;;;;;;;;7.90;99.90;;;;;;5072598;28;20011;-71
2022/02/14 11:43:08;;;;;;;;;;;7.90;99.90;;;;;;5063193;28;19952;-70
2022/02/14 11:45:34;;;;;;;;;;;7.90;99.90;;;;;;5074459;28;19916;-70
2022/02/14 11:48:19;;;;;;;;;;;7.80;99.90;;;;;;5079454;28;20044;-70
2022/02/14 11:50:44;;;;;;;;;;;7.70;99.90;;;;;;5074285;28;19914;-70
2022/02/14 11:53:29;;;;;;;;;;;7.70;99.90;;;;;;5060995;28;20015;-70
2022/02/14 11:55:54;;;;;;;;;;;7.70;99.90;;;;;;5075468;28;20404;-70
2022/02/14 11:58:40;;;;;;;;;;;7.70;99.90;;;;;;5057357;28;19920;-70
2022/02/14 12:01:06;;;;;;;;;;;7.70;99.90;;;;;;5075600;28;19919;-69
2022/02/14 12:03:32;;;;;;;;;;;7.70;99.90;;;;;;5077667;28;20356;-70
2022/02/14 12:05:59;;;;;;;;;;;7.70;99.90;;;;;;5074838;28;19962;-70
2022/02/14 12:08:25;;;;;;;;;;;7.70;99.90;;;;;;5076172;28;19963;-70
2022/02/14 12:10:50;;;;;;;;;;;7.80;99.90;;;;;;5063587;28;19913;-69
2022/02/14 12:13:18;;;;;;;;;;;7.80;99.90;;;;;;5059737;28;20321;-69
2022/02/14 12:21:03;;;;;;;;;;;7.90;99.90;;;;;;5066692;28;19935;-70
2022/02/14 12:23:28;;;;;;;;;;;8.00;99.90;;;;;;5067085;28;19912;-70
2022/02/14 12:25:54;;;;;;;;;;;8.10;99.90;;;;;;5074166;28;20418;-70
2022/02/14 12:28:21;;;;;;;;;;;8.10;99.90;;;;;;5065790;28;19913;-70
2022/02/14 12:30:47;;;;;;;;;;;8.00;99.90;;;;;;5076744;28;20261;-70
2022/02/14 12:33:16;;;;;;;;;;;8.10;99.90;;;;;;5077724;28;19917;-69
2022/02/14 12:35:43;;;;;;;;;;;8.10;99.90;;;;;;5071544;28;19916;-69
2022/02/14 12:38:09;;;;;;;;;;;8.20;99.90;;;;;;5080121;28;19919;-70
2022/02/14 12:40:44;;;;;;;;;;;8.20;99.90;;;;;;5067240;28;19916;-69
2022/02/14 12:43:29;;;;;;;;;;;8.30;99.90;;;;;;5079621;28;19917;-70
2022/02/14 12:45:57;;;;;;;;;;;8.30;99.90;;;;;;5085466;28;19965;-69
2022/02/14 12:48:36;;;;;;;;;;;8.30;99.90;;;;;;5064494;28;19913;-69
2022/02/14 12:51:19;;;;;;;;;;;8.30;99.90;;;;;;5072140;28;19912;-71
2022/02/14 12:53:49;;;;;;;;;;;8.20;99.90;;;;;;5068716;28;20011;-70
2022/02/14 12:56:19;;;;;;;;;;;8.30;99.90;;;;;;5076713;28;19913;-71
2022/02/14 12:58:52;;;;;;;;;;;8.20;99.90;;;;;;5066204;28;19916;-71
2022/02/14 13:01:21;;;;;;;;;;;8.20;99.90;;;;;;5076645;28;19973;-70
2022/02/14 13:04:00;;;;;;;;;;;8.20;99.90;;;;;;5074512;28;19944;-69
2022/02/14 13:06:35;;;;;;;;;;;8.20;99.90;;;;;;5075380;28;20579;-70
2022/02/14 13:09:01;;;;;;;;;;;8.10;99.90;;;;;;5071501;28;19913;-69
2022/02/14 13:11:27;;;;;;;;;;;8.10;99.90;;;;;;5072406;28;19913;-70
2022/02/14 13:13:53;;;;;;;;;;;8.10;99.90;;;;;;5078838;28;19932;-71
2022/02/14 13:16:25;;;;;;;;;;;8.10;99.90;;;;;;5067007;28;19964;-69
2022/02/14 13:18:51;;;;;;;;;;;8.10;99.90;;;;;;5076565;28;19974;-70
2022/02/14 13:21:20;;;;;;;;;;;8.20;99.90;;;;;;5070873;28;19913;-71
2022/02/14 13:23:46;;;;;;;;;;;8.10;99.90;;;;;;5081441;28;20529;-71
2022/02/14 13:26:20;;;;;;;;;;;8.10;99.90;;;;;;5073842;28;19923;-71
2022/02/14 13:28:46;;;;;;;;;;;8.00;99.90;;;;;;5077409;28;19913;-70
2022/02/14 13:31:18;;;;;;;;;;;7.70;99.90;;;;;;5059801;28;19912;-71
2022/02/14 13:33:48;;;;;;;;;;;7.50;99.90;;;;;;5071558;28;19917;-71
2022/02/14 13:36:13;;;;;;;;;;;7.60;99.90;;;;;;5075586;28;19917;-71
2022/02/14 13:38:40;;;;;;;;;;;7.60;99.90;;;;;;5064742;28;19927;-69
2022/02/14 13:41:06;;;;;;;;;;;7.60;99.90;;;;;;5053169;28;19963;-71
2022/02/14 13:43:33;;;;;;;;;;;7.60;99.90;;;;;;5076550;28;19912;-70
2022/02/14 13:46:00;;;;;;;;;;;7.60;99.90;;;;;;5062356;28;20386;-70
2022/02/14 13:48:26;;;;;;;;;;;7.80;99.90;;;;;;5064566;28;20019;-69
2022/02/14 13:50:59;;;;;;;;;;;7.80;99.90;;;;;;5078181;28;19912;-70
2022/02/14 13:53:29;;;;;;;;;;;7.90;99.90;;;;;;5080138;28;20048;-71
2022/02/14 13:56:07;;;;;;;;;;;7.90;99.90;;;;;;5075179;28;19913;-72
2022/02/14 13:58:35;;;;;;;;;;;7.90;99.90;;;;;;5057676;28;19916;-69
2022/02/14 14:01:03;;;;;;;;;;;7.90;99.90;;;;;;5075349;28;19963;-70
2022/02/14 14:03:29;;;;;;;;;;;8.00;99.90;;;;;;5058586;28;19909;-70
2022/02/14 14:05:54;;;;;;;;;;;8.00;99.90;;;;;;5075580;28;19919;-73
2022/02/14 14:08:34;;;;;;;;;;;8.00;99.90;;;;;;5070011;28;19916;-70
2022/02/14 14:11:00;;;;;;;;;;;8.10;99.90;;;;;;5083734;28;19913;-70
2022/02/14 14:13:40;;;;;;;;;;;8.10;99.90;;;;;;5053035;28;19936;-70
2022/02/14 14:16:05;;;;;;;;;;;8.10;99.90;;;;;;5078691;28;20032;-71
2022/02/14 14:18:31;;;;;;;;;;;8.20;99.90;;;;;;5083489;28;20327;-71
2022/02/14 14:21:05;;;;;;;;;;;8.20;99.90;;;;;;5070997;28;19912;-71
2022/02/14 14:23:31;;;;;;;;;;;8.10;99.90;;;;;;5072428;28;20369;-70
2022/02/14 14:25:56;;;;;;;;;;;8.00;99.90;;;;;;5067826;28;19912;-71
2022/02/14 14:28:22;;;;;;;;;;;7.90;99.90;;;;;;5086225;28;20385;-71
2022/02/14 14:30:47;;;;;;;;;;;7.90;99.90;;;;;;5053630;28;19916;-71
2022/02/14 14:33:13;;;;;;;;;;;8.00;99.90;;;;;;5074990;28;19967;-69
2022/02/14 14:35:40;;;;;;;;;;;8.10;99.90;;;;;;5072444;28;19913;-70
2022/02/14 14:38:06;;;;;;;;;;;8.10;99.90;;;;;;5067306;28;19913;-71
2022/02/14 14:40:32;;;;;;;;;;;8.20;99.90;;;;;;5073760;28;19933;-71